sensor_id;sensor_type;location;lat;lon;timestamp;P1;P2;P0
73565;PMS5003;61846;52.970;-3.168;2023-09-07T00:00:30;21;18;
73565;PMS5003;61846;52.970;-3.168;2023-09-07T00:02:55;16;15;
73565;PMS5003;61846;52.970;-3.168;2023-09-07T00:05:20;19;17;
73565;PMS5003;61846;52.970;-3.168;2023-09-07T00:07:45;19;16;
73565;PMS5003;61846;52.970;-3.168;2023-09-07T00:10:11;19;17;
73565;PMS5003;61846;52.970;-3.168;2023-09-07T00:12:36;29;18;
73565;PMS5003;61846;52.970;-3.168;2023-09-07T00:15:02;17;15;
73565;PMS5003;61846;52.970;-3.168;2023-09-07T00:17:27;20;19;
73565;PMS5003;61846;52.970;-3.168;2023-09-07T00:19:53;21;21;
73565;PMS5003;61846;52.970;-3.168;2023-09-07T00:22:18;26;19;
73565;PMS5003;61846;52.970;-3.168;2023-09-07T00:24:43;20;18;
73565;PMS5003;61846;52.970;-3.168;2023-09-07T00:27:09;16;15;
73565;PMS5003;61846;52.970;-3.168;2023-09-07T00:29:35;15;14;
73565;PMS5003;61846;52.970;-3.168;2023-09-07T00:32:00;17;17;
73565;PMS5003;61846;52.970;-3.168;2023-09-07T00:34:25;16;13;
73565;PMS5003;61846;52.970;-3.168;2023-09-07T00:36:51;16;15;
73565;PMS5003;61846;52.970;-3.168;2023-09-07T00:39:16;22;18;
73565;PMS5003;61846;52.970;-3.168;2023-09-07T00:41:42;17;15;
73565;PMS5003;61846;52.970;-3.168;2023-09-07T00:44:07;25;19;
73565;PMS5003;61846;52.970;-3.168;2023-09-07T00:46:32;21;18;
73565;PMS5003;61846;52.970;-3.168;2023-09-07T00:48:57;20;17;
73565;PMS5003;61846;52.970;-3.168;2023-09-07T00:51:22;18;18;
73565;PMS5003;61846;52.970;-3.168;2023-09-07T00:53:48;19;17;
73565;PMS5003;61846;52.970;-3.168;2023-09-07T00:56:13;14;14;
73565;PMS5003;61846;52.970;-3.168;2023-09-07T00:58:38;18;17;
73565;PMS5003;61846;52.970;-3.168;2023-09-07T01:01:04;26;20;
73565;PMS5003;61846;52.970;-3.168;2023-09-07T01:03:29;17;15;
73565;PMS5003;61846;52.970;-3.168;2023-09-07T01:05:56;18;18;
73565;PMS5003;61846;52.970;-3.168;2023-09-07T01:08:23;16;15;
73565;PMS5003;61846;52.970;-3.168;2023-09-07T01:10:45;21;18;
73565;PMS5003;61846;52.970;-3.168;2023-09-07T01:13:11;22;16;
73565;PMS5003;61846;52.970;-3.168;2023-09-07T01:15:36;24;22;
73565;PMS5003;61846;52.970;-3.168;2023-09-07T01:18:01;20;16;
73565;PMS5003;61846;52.970;-3.168;2023-09-07T01:20:26;23;16;
73565;PMS5003;61846;52.970;-3.168;2023-09-07T01:22:52;17;17;
73565;PMS5003;61846;52.970;-3.168;2023-09-07T01:25:17;20;16;
73565;PMS5003;61846;52.970;-3.168;2023-09-07T01:27:43;22;21;
73565;PMS5003;61846;52.970;-3.168;2023-09-07T01:30:09;26;18;
73565;PMS5003;61846;52.970;-3.168;2023-09-07T01:32:34;23;21;
73565;PMS5003;61846;52.970;-3.168;2023-09-07T01:35:00;20;20;
73565;PMS5003;61846;52.970;-3.168;2023-09-07T01:37:25;27;21;
73565;PMS5003;61846;52.970;-3.168;2023-09-07T01:39:50;20;19;
73565;PMS5003;61846;52.970;-3.168;2023-09-07T01:42:15;21;20;
73565;PMS5003;61846;52.970;-3.168;2023-09-07T01:44:41;19;17;
73565;PMS5003;61846;52.970;-3.168;2023-09-07T01:47:07;22;22;
73565;PMS5003;61846;52.970;-3.168;2023-09-07T01:49:32;21;18;
73565;PMS5003;61846;52.970;-3.168;2023-09-07T01:51:58;22;19;
73565;PMS5003;61846;52.970;-3.168;2023-09-07T01:54:23;24;21;
73565;PMS5003;61846;52.970;-3.168;2023-09-07T01:56:49;27;18;
73565;PMS5003;61846;52.970;-3.168;2023-09-07T01:59:13;18;17;
73565;PMS5003;61846;52.970;-3.168;2023-09-07T02:01:39;23;21;
73565;PMS5003;61846;52.970;-3.168;2023-09-07T02:04:05;21;19;
73565;PMS5003;61846;52.970;-3.168;2023-09-07T02:06:30;22;21;
73565;PMS5003;61846;52.970;-3.168;2023-09-07T02:08:56;25;20;
73565;PMS5003;61846;52.970;-3.168;2023-09-07T02:11:21;18;17;
73565;PMS5003;61846;52.970;-3.168;2023-09-07T02:13:47;22;21;
73565;PMS5003;61846;52.970;-3.168;2023-09-07T02:16:13;16;16;
73565;PMS5003;61846;52.970;-3.168;2023-09-07T02:18:38;19;19;
73565;PMS5003;61846;52.970;-3.168;2023-09-07T02:21:03;22;18;
73565;PMS5003;61846;52.970;-3.168;2023-09-07T02:23:28;19;16;
73565;PMS5003;61846;52.970;-3.168;2023-09-07T02:25:53;21;20;
73565;PMS5003;61846;52.970;-3.168;2023-09-07T02:28:19;22;18;
73565;PMS5003;61846;52.970;-3.168;2023-09-07T02:30:44;23;19;
73565;PMS5003;61846;52.970;-3.168;2023-09-07T02:33:09;26;22;
73565;PMS5003;61846;52.970;-3.168;2023-09-07T02:35:36;28;19;
73565;PMS5003;61846;52.970;-3.168;2023-09-07T02:38:00;25;23;
73565;PMS5003;61846;52.970;-3.168;2023-09-07T02:40:26;26;23;
73565;PMS5003;61846;52.970;-3.168;2023-09-07T02:42:51;31;19;
73565;PMS5003;61846;52.970;-3.168;2023-09-07T02:45:17;24;17;
73565;PMS5003;61846;52.970;-3.168;2023-09-07T02:47:42;29;22;
73565;PMS5003;61846;52.970;-3.168;2023-09-07T02:50:08;19;17;
73565;PMS5003;61846;52.970;-3.168;2023-09-07T02:52:33;22;20;
73565;PMS5003;61846;52.970;-3.168;2023-09-07T02:54:58;23;21;
73565;PMS5003;61846;52.970;-3.168;2023-09-07T02:57:24;23;21;
73565;PMS5003;61846;52.970;-3.168;2023-09-07T02:59:49;25;24;
73565;PMS5003;61846;52.970;-3.168;2023-09-07T03:02:14;21;19;
73565;PMS5003;61846;52.970;-3.168;2023-09-07T03:04:39;26;18;
73565;PMS5003;61846;52.970;-3.168;2023-09-07T03:07:04;19;17;
73565;PMS5003;61846;52.970;-3.168;2023-09-07T03:09:30;20;19;
73565;PMS5003;61846;52.970;-3.168;2023-09-07T03:11:55;19;19;
73565;PMS5003;61846;52.970;-3.168;2023-09-07T03:14:20;21;21;
73565;PMS5003;61846;52.970;-3.168;2023-09-07T03:16:46;23;17;
73565;PMS5003;61846;52.970;-3.168;2023-09-07T03:19:11;26;24;
73565;PMS5003;61846;52.970;-3.168;2023-09-07T03:21:37;32;25;
73565;PMS5003;61846;52.970;-3.168;2023-09-07T03:24:02;21;18;
73565;PMS5003;61846;52.970;-3.168;2023-09-07T03:26:28;31;24;
73565;PMS5003;61846;52.970;-3.168;2023-09-07T03:28:53;22;19;
73565;PMS5003;61846;52.970;-3.168;2023-09-07T03:31:19;24;20;
73565;PMS5003;61846;52.970;-3.168;2023-09-07T03:33:44;17;17;
73565;PMS5003;61846;52.970;-3.168;2023-09-07T03:36:10;24;20;
73565;PMS5003;61846;52.970;-3.168;2023-09-07T03:38:35;25;20;
73565;PMS5003;61846;52.970;-3.168;2023-09-07T03:41:00;24;18;
73565;PMS5003;61846;52.970;-3.168;2023-09-07T03:43:26;24;22;
73565;PMS5003;61846;52.970;-3.168;2023-09-07T03:45:51;18;13;
73565;PMS5003;61846;52.970;-3.168;2023-09-07T03:48:16;18;18;
73565;PMS5003;61846;52.970;-3.168;2023-09-07T03:50:41;26;21;
73565;PMS5003;61846;52.970;-3.168;2023-09-07T03:53:07;20;17;
73565;PMS5003;61846;52.970;-3.168;2023-09-07T03:57:57;27;23;
73565;PMS5003;61846;52.970;-3.168;2023-09-07T04:00:23;27;22;
73565;PMS5003;61846;52.970;-3.168;2023-09-07T04:02:48;18;18;
73565;PMS5003;61846;52.970;-3.168;2023-09-07T04:05:13;22;22;
73565;PMS5003;61846;52.970;-3.168;2023-09-07T04:07:39;33;22;
73565;PMS5003;61846;52.970;-3.168;2023-09-07T04:10:04;26;26;
73565;PMS5003;61846;52.970;-3.168;2023-09-07T04:12:34;23;20;
73565;PMS5003;61846;52.970;-3.168;2023-09-07T04:14:55;29;22;
73565;PMS5003;61846;52.970;-3.168;2023-09-07T04:17:21;31;21;
73565;PMS5003;61846;52.970;-3.168;2023-09-07T04:19:46;24;21;
73565;PMS5003;61846;52.970;-3.168;2023-09-07T04:22:11;27;24;
73565;PMS5003;61846;52.970;-3.168;2023-09-07T04:24:37;27;24;
73565;PMS5003;61846;52.970;-3.168;2023-09-07T04:27:03;28;22;
73565;PMS5003;61846;52.970;-3.168;2023-09-07T04:29:28;25;22;
73565;PMS5003;61846;52.970;-3.168;2023-09-07T04:31:54;31;21;
73565;PMS5003;61846;52.970;-3.168;2023-09-07T04:34:20;22;22;
73565;PMS5003;61846;52.970;-3.168;2023-09-07T04:36:45;29;23;
73565;PMS5003;61846;52.970;-3.168;2023-09-07T04:39:10;25;22;
73565;PMS5003;61846;52.970;-3.168;2023-09-07T04:41:35;34;29;
73565;PMS5003;61846;52.970;-3.168;2023-09-07T04:44:01;33;27;
73565;PMS5003;61846;52.970;-3.168;2023-09-07T04:46:26;25;23;
73565;PMS5003;61846;52.970;-3.168;2023-09-07T04:48:51;28;28;
73565;PMS5003;61846;52.970;-3.168;2023-09-07T04:51:17;31;24;
73565;PMS5003;61846;52.970;-3.168;2023-09-07T04:53:43;30;24;
73565;PMS5003;61846;52.970;-3.168;2023-09-07T04:56:08;25;25;
73565;PMS5003;61846;52.970;-3.168;2023-09-07T04:58:34;36;30;
73565;PMS5003;61846;52.970;-3.168;2023-09-07T05:01:02;25;23;
73565;PMS5003;61846;52.970;-3.168;2023-09-07T05:03:25;38;27;
73565;PMS5003;61846;52.970;-3.168;2023-09-07T05:05:51;25;22;
73565;PMS5003;61846;52.970;-3.168;2023-09-07T05:08:16;29;25;
73565;PMS5003;61846;52.970;-3.168;2023-09-07T05:10:41;29;25;
73565;PMS5003;61846;52.970;-3.168;2023-09-07T05:13:06;40;33;
73565;PMS5003;61846;52.970;-3.168;2023-09-07T05:15:32;37;28;
73565;PMS5003;61846;52.970;-3.168;2023-09-07T05:17:57;33;27;
73565;PMS5003;61846;52.970;-3.168;2023-09-07T05:20:23;29;26;
73565;PMS5003;61846;52.970;-3.168;2023-09-07T05:22:48;25;23;
73565;PMS5003;61846;52.970;-3.168;2023-09-07T05:25:13;26;23;
73565;PMS5003;61846;52.970;-3.168;2023-09-07T05:27:39;25;22;
73565;PMS5003;61846;52.970;-3.168;2023-09-07T05:30:05;31;28;
73565;PMS5003;61846;52.970;-3.168;2023-09-07T05:32:30;30;29;
73565;PMS5003;61846;52.970;-3.168;2023-09-07T05:34:56;35;30;
73565;PMS5003;61846;52.970;-3.168;2023-09-07T05:37:22;28;22;
73565;PMS5003;61846;52.970;-3.168;2023-09-07T05:39:47;37;30;
73565;PMS5003;61846;52.970;-3.168;2023-09-07T05:42:12;36;29;
73565;PMS5003;61846;52.970;-3.168;2023-09-07T05:44:38;31;28;
73565;PMS5003;61846;52.970;-3.168;2023-09-07T05:47:04;34;27;
73565;PMS5003;61846;52.970;-3.168;2023-09-07T05:49:29;31;25;
73565;PMS5003;61846;52.970;-3.168;2023-09-07T05:51:54;27;24;
73565;PMS5003;61846;52.970;-3.168;2023-09-07T05:54:20;36;30;
73565;PMS5003;61846;52.970;-3.168;2023-09-07T05:56:45;29;27;
73565;PMS5003;61846;52.970;-3.168;2023-09-07T05:59:11;33;25;
73565;PMS5003;61846;52.970;-3.168;2023-09-07T06:01:36;34;28;
73565;PMS5003;61846;52.970;-3.168;2023-09-07T06:04:01;28;27;
73565;PMS5003;61846;52.970;-3.168;2023-09-07T06:06:27;31;28;
73565;PMS5003;61846;52.970;-3.168;2023-09-07T06:08:52;34;23;
73565;PMS5003;61846;52.970;-3.168;2023-09-07T06:11:17;28;28;
73565;PMS5003;61846;52.970;-3.168;2023-09-07T06:13:43;34;28;
73565;PMS5003;61846;52.970;-3.168;2023-09-07T06:16:08;35;25;
73565;PMS5003;61846;52.970;-3.168;2023-09-07T06:18:33;37;29;
73565;PMS5003;61846;52.970;-3.168;2023-09-07T06:20:58;36;28;
73565;PMS5003;61846;52.970;-3.168;2023-09-07T06:23:24;36;27;
73565;PMS5003;61846;52.970;-3.168;2023-09-07T06:25:49;29;27;
73565;PMS5003;61846;52.970;-3.168;2023-09-07T06:28:14;41;32;
73565;PMS5003;61846;52.970;-3.168;2023-09-07T06:30:40;41;31;
73565;PMS5003;61846;52.970;-3.168;2023-09-07T06:33:06;34;29;
73565;PMS5003;61846;52.970;-3.168;2023-09-07T06:35:31;36;25;
73565;PMS5003;61846;52.970;-3.168;2023-09-07T06:37:56;29;28;
73565;PMS5003;61846;52.970;-3.168;2023-09-07T06:40:22;27;27;
73565;PMS5003;61846;52.970;-3.168;2023-09-07T06:42:48;87;55;
73565;PMS5003;61846;52.970;-3.168;2023-09-07T06:45:13;47;34;
73565;PMS5003;61846;52.970;-3.168;2023-09-07T06:47:39;45;37;
73565;PMS5003;61846;52.970;-3.168;2023-09-07T06:50:05;46;37;
73565;PMS5003;61846;52.970;-3.168;2023-09-07T06:52:30;46;37;
73565;PMS5003;61846;52.970;-3.168;2023-09-07T06:54:55;42;36;
73565;PMS5003;61846;52.970;-3.168;2023-09-07T06:57:21;41;38;
73565;PMS5003;61846;52.970;-3.168;2023-09-07T06:59:46;44;39;
73565;PMS5003;61846;52.970;-3.168;2023-09-07T07:02:12;44;34;
73565;PMS5003;61846;52.970;-3.168;2023-09-07T07:04:38;42;38;
73565;PMS5003;61846;52.970;-3.168;2023-09-07T07:07:03;34;34;
73565;PMS5003;61846;52.970;-3.168;2023-09-07T07:09:29;42;37;
73565;PMS5003;61846;52.970;-3.168;2023-09-07T07:11:55;51;43;
73565;PMS5003;61846;52.970;-3.168;2023-09-07T07:14:20;37;36;
73565;PMS5003;61846;52.970;-3.168;2023-09-07T07:16:46;38;34;
73565;PMS5003;61846;52.970;-3.168;2023-09-07T07:19:10;37;35;
73565;PMS5003;61846;52.970;-3.168;2023-09-07T07:21:36;40;33;
73565;PMS5003;61846;52.970;-3.168;2023-09-07T07:24:02;38;36;
73565;PMS5003;61846;52.970;-3.168;2023-09-07T07:26:27;42;32;
73565;PMS5003;61846;52.970;-3.168;2023-09-07T07:28:52;44;38;
73565;PMS5003;61846;52.970;-3.168;2023-09-07T07:31:18;34;32;
73565;PMS5003;61846;52.970;-3.168;2023-09-07T07:33:44;39;36;
73565;PMS5003;61846;52.970;-3.168;2023-09-07T07:36:09;34;32;
73565;PMS5003;61846;52.970;-3.168;2023-09-07T07:38:34;39;37;
73565;PMS5003;61846;52.970;-3.168;2023-09-07T07:41:00;43;36;
73565;PMS5003;61846;52.970;-3.168;2023-09-07T07:43:25;50;41;
73565;PMS5003;61846;52.970;-3.168;2023-09-07T07:45:51;39;38;
73565;PMS5003;61846;52.970;-3.168;2023-09-07T07:48:16;40;38;
73565;PMS5003;61846;52.970;-3.168;2023-09-07T07:50:42;37;35;
73565;PMS5003;61846;52.970;-3.168;2023-09-07T07:53:08;46;36;
73565;PMS5003;61846;52.970;-3.168;2023-09-07T07:55:34;44;32;
73565;PMS5003;61846;52.970;-3.168;2023-09-07T07:57:58;43;39;
73565;PMS5003;61846;52.970;-3.168;2023-09-07T08:00:24;46;41;
73565;PMS5003;61846;52.970;-3.168;2023-09-07T08:02:50;46;35;
73565;PMS5003;61846;52.970;-3.168;2023-09-07T08:05:16;47;39;
73565;PMS5003;61846;52.970;-3.168;2023-09-07T08:07:41;48;39;
73565;PMS5003;61846;52.970;-3.168;2023-09-07T08:10:07;46;37;
73565;PMS5003;61846;52.970;-3.168;2023-09-07T08:12:32;52;42;
73565;PMS5003;61846;52.970;-3.168;2023-09-07T08:14:57;48;42;
73565;PMS5003;61846;52.970;-3.168;2023-09-07T08:17:23;40;35;
73565;PMS5003;61846;52.970;-3.168;2023-09-07T08:19:49;46;38;
73565;PMS5003;61846;52.970;-3.168;2023-09-07T08:22:13;44;38;
73565;PMS5003;61846;52.970;-3.168;2023-09-07T08:24:39;57;42;
73565;PMS5003;61846;52.970;-3.168;2023-09-07T08:27:04;46;39;
73565;PMS5003;61846;52.970;-3.168;2023-09-07T08:29:30;48;37;
73565;PMS5003;61846;52.970;-3.168;2023-09-07T08:31:55;53;46;
73565;PMS5003;61846;52.970;-3.168;2023-09-07T08:34:21;52;47;
73565;PMS5003;61846;52.970;-3.168;2023-09-07T08:36:46;45;40;
73565;PMS5003;61846;52.970;-3.168;2023-09-07T08:39:11;51;43;
73565;PMS5003;61846;52.970;-3.168;2023-09-07T08:41:37;41;38;
73565;PMS5003;61846;52.970;-3.168;2023-09-07T08:44:02;59;42;
73565;PMS5003;61846;52.970;-3.168;2023-09-07T08:46:28;39;33;
73565;PMS5003;61846;52.970;-3.168;2023-09-07T08:48:53;43;42;
73565;PMS5003;61846;52.970;-3.168;2023-09-07T08:51:18;43;39;
73565;PMS5003;61846;52.970;-3.168;2023-09-07T08:53:44;43;41;
73565;PMS5003;61846;52.970;-3.168;2023-09-07T08:56:09;49;41;
73565;PMS5003;61846;52.970;-3.168;2023-09-07T08:58:35;41;35;
73565;PMS5003;61846;52.970;-3.168;2023-09-07T09:01:00;40;39;
73565;PMS5003;61846;52.970;-3.168;2023-09-07T09:03:25;46;39;
73565;PMS5003;61846;52.970;-3.168;2023-09-07T09:05:52;47;42;
73565;PMS5003;61846;52.970;-3.168;2023-09-07T09:08:17;49;38;
73565;PMS5003;61846;52.970;-3.168;2023-09-07T09:10:43;45;38;
73565;PMS5003;61846;52.970;-3.168;2023-09-07T09:13:08;39;36;
73565;PMS5003;61846;52.970;-3.168;2023-09-07T09:15:33;50;42;
73565;PMS5003;61846;52.970;-3.168;2023-09-07T09:20:24;47;40;
73565;PMS5003;61846;52.970;-3.168;2023-09-07T09:22:50;36;33;
73565;PMS5003;61846;52.970;-3.168;2023-09-07T09:25:15;45;37;
73565;PMS5003;61846;52.970;-3.168;2023-09-07T09:27:40;35;32;
73565;PMS5003;61846;52.970;-3.168;2023-09-07T09:30:06;41;36;
73565;PMS5003;61846;52.970;-3.168;2023-09-07T09:32:31;48;39;
73565;PMS5003;61846;52.970;-3.168;2023-09-07T09:34:56;43;35;
73565;PMS5003;61846;52.970;-3.168;2023-09-07T09:37:22;40;33;
73565;PMS5003;61846;52.970;-3.168;2023-09-07T09:39:49;44;37;
73565;PMS5003;61846;52.970;-3.168;2023-09-07T09:42:12;37;35;
73565;PMS5003;61846;52.970;-3.168;2023-09-07T09:44:38;39;33;
73565;PMS5003;61846;52.970;-3.168;2023-09-07T09:47:03;42;37;
73565;PMS5003;61846;52.970;-3.168;2023-09-07T09:49:28;35;33;
73565;PMS5003;61846;52.970;-3.168;2023-09-07T09:51:54;45;39;
73565;PMS5003;61846;52.970;-3.168;2023-09-07T09:54:20;44;38;
73565;PMS5003;61846;52.970;-3.168;2023-09-07T09:56:45;44;42;
73565;PMS5003;61846;52.970;-3.168;2023-09-07T09:59:10;44;41;
73565;PMS5003;61846;52.970;-3.168;2023-09-07T10:01:38;52;43;
73565;PMS5003;61846;52.970;-3.168;2023-09-07T10:04:01;61;51;
73565;PMS5003;61846;52.970;-3.168;2023-09-07T10:06:28;54;47;
73565;PMS5003;61846;52.970;-3.168;2023-09-07T10:08:53;53;45;
73565;PMS5003;61846;52.970;-3.168;2023-09-07T10:11:25;46;39;
73565;PMS5003;61846;52.970;-3.168;2023-09-07T10:13:43;55;45;
73565;PMS5003;61846;52.970;-3.168;2023-09-07T10:16:09;50;44;
73565;PMS5003;61846;52.970;-3.168;2023-09-07T10:18:35;54;45;
73565;PMS5003;61846;52.970;-3.168;2023-09-07T10:21:00;52;46;
73565;PMS5003;61846;52.970;-3.168;2023-09-07T10:25:51;50;46;
73565;PMS5003;61846;52.970;-3.168;2023-09-07T10:28:18;44;40;
73565;PMS5003;61846;52.970;-3.168;2023-09-07T10:30:41;57;49;
73565;PMS5003;61846;52.970;-3.168;2023-09-07T10:33:07;55;49;
73565;PMS5003;61846;52.970;-3.168;2023-09-07T10:35:34;48;45;
73565;PMS5003;61846;52.970;-3.168;2023-09-07T10:37:58;44;39;
73565;PMS5003;61846;52.970;-3.168;2023-09-07T10:40:23;38;37;
73565;PMS5003;61846;52.970;-3.168;2023-09-07T10:42:49;41;38;
73565;PMS5003;61846;52.970;-3.168;2023-09-07T10:45:15;48;40;
73565;PMS5003;61846;52.970;-3.168;2023-09-07T10:47:40;43;37;
73565;PMS5003;61846;52.970;-3.168;2023-09-07T10:50:05;48;42;
73565;PMS5003;61846;52.970;-3.168;2023-09-07T10:52:30;37;35;
73565;PMS5003;61846;52.970;-3.168;2023-09-07T10:54:57;37;36;
73565;PMS5003;61846;52.970;-3.168;2023-09-07T10:57:21;45;34;
73565;PMS5003;61846;52.970;-3.168;2023-09-07T10:59:47;40;34;
73565;PMS5003;61846;52.970;-3.168;2023-09-07T11:02:12;49;40;
73565;PMS5003;61846;52.970;-3.168;2023-09-07T11:04:37;48;39;
73565;PMS5003;61846;52.970;-3.168;2023-09-07T11:07:03;39;34;
73565;PMS5003;61846;52.970;-3.168;2023-09-07T11:09:29;43;34;
73565;PMS5003;61846;52.970;-3.168;2023-09-07T11:11:54;41;32;
73565;PMS5003;61846;52.970;-3.168;2023-09-07T11:14:21;31;31;
73565;PMS5003;61846;52.970;-3.168;2023-09-07T11:16:45;38;34;
73565;PMS5003;61846;52.970;-3.168;2023-09-07T11:19:10;40;35;
73565;PMS5003;61846;52.970;-3.168;2023-09-07T11:21:36;32;32;
73565;PMS5003;61846;52.970;-3.168;2023-09-07T11:24:02;39;37;
73565;PMS5003;61846;52.970;-3.168;2023-09-07T11:26:27;45;37;
73565;PMS5003;61846;52.970;-3.168;2023-09-07T11:28:52;45;37;
73565;PMS5003;61846;52.970;-3.168;2023-09-07T11:31:18;45;36;
73565;PMS5003;61846;52.970;-3.168;2023-09-07T11:33:43;36;34;
73565;PMS5003;61846;52.970;-3.168;2023-09-07T11:36:09;40;33;
73565;PMS5003;61846;52.970;-3.168;2023-09-07T11:38:36;40;32;
73565;PMS5003;61846;52.970;-3.168;2023-09-07T11:41:01;38;30;
73565;PMS5003;61846;52.970;-3.168;2023-09-07T11:43:26;41;34;
73565;PMS5003;61846;52.970;-3.168;2023-09-07T11:45:51;46;39;
73565;PMS5003;61846;52.970;-3.168;2023-09-07T11:48:17;51;42;
73565;PMS5003;61846;52.970;-3.168;2023-09-07T11:50:42;40;35;
73565;PMS5003;61846;52.970;-3.168;2023-09-07T11:53:08;39;34;
73565;PMS5003;61846;52.970;-3.168;2023-09-07T11:55:34;35;33;
73565;PMS5003;61846;52.970;-3.168;2023-09-07T11:58:00;37;35;
73565;PMS5003;61846;52.970;-3.168;2023-09-07T12:00:25;50;39;
73565;PMS5003;61846;52.970;-3.168;2023-09-07T12:02:50;37;36;
73565;PMS5003;61846;52.970;-3.168;2023-09-07T12:05:16;46;39;
73565;PMS5003;61846;52.970;-3.168;2023-09-07T12:07:42;42;34;
73565;PMS5003;61846;52.970;-3.168;2023-09-07T12:10:07;41;34;
73565;PMS5003;61846;52.970;-3.168;2023-09-07T12:12:33;37;33;
73565;PMS5003;61846;52.970;-3.168;2023-09-07T12:14:59;46;39;
73565;PMS5003;61846;52.970;-3.168;2023-09-07T12:17:24;35;31;
73565;PMS5003;61846;52.970;-3.168;2023-09-07T12:19:50;42;36;
73565;PMS5003;61846;52.970;-3.168;2023-09-07T12:22:15;33;32;
73565;PMS5003;61846;52.970;-3.168;2023-09-07T12:24:41;36;31;
73565;PMS5003;61846;52.970;-3.168;2023-09-07T12:27:06;27;27;
73565;PMS5003;61846;52.970;-3.168;2023-09-07T12:29:32;40;34;
73565;PMS5003;61846;52.970;-3.168;2023-09-07T12:31:57;35;30;
73565;PMS5003;61846;52.970;-3.168;2023-09-07T12:34:23;35;32;
73565;PMS5003;61846;52.970;-3.168;2023-09-07T12:36:49;35;31;
73565;PMS5003;61846;52.970;-3.168;2023-09-07T12:39:14;36;30;
73565;PMS5003;61846;52.970;-3.168;2023-09-07T12:41:39;35;31;
73565;PMS5003;61846;52.970;-3.168;2023-09-07T12:44:04;33;27;
73565;PMS5003;61846;52.970;-3.168;2023-09-07T12:46:30;41;32;
73565;PMS5003;61846;52.970;-3.168;2023-09-07T12:48:55;37;29;
73565;PMS5003;61846;52.970;-3.168;2023-09-07T12:51:20;38;32;
73565;PMS5003;61846;52.970;-3.168;2023-09-07T12:53:46;33;29;
73565;PMS5003;61846;52.970;-3.168;2023-09-07T12:56:11;29;28;
73565;PMS5003;61846;52.970;-3.168;2023-09-07T12:58:37;34;30;
73565;PMS5003;61846;52.970;-3.168;2023-09-07T13:01:02;41;30;
73565;PMS5003;61846;52.970;-3.168;2023-09-07T13:03:27;27;26;
73565;PMS5003;61846;52.970;-3.168;2023-09-07T13:05:53;35;28;
73565;PMS5003;61846;52.970;-3.168;2023-09-07T13:08:18;35;26;
73565;PMS5003;61846;52.970;-3.168;2023-09-07T13:10:43;27;27;
73565;PMS5003;61846;52.970;-3.168;2023-09-07T13:13:09;33;24;
73565;PMS5003;61846;52.970;-3.168;2023-09-07T13:15:34;27;22;
73565;PMS5003;61846;52.970;-3.168;2023-09-07T13:17:59;29;28;
73565;PMS5003;61846;52.970;-3.168;2023-09-07T13:20:25;26;23;
73565;PMS5003;61846;52.970;-3.168;2023-09-07T13:22:50;31;25;
73565;PMS5003;61846;52.970;-3.168;2023-09-07T13:25:15;31;27;
73565;PMS5003;61846;52.970;-3.168;2023-09-07T13:27:41;28;21;
73565;PMS5003;61846;52.970;-3.168;2023-09-07T13:30:06;29;27;
73565;PMS5003;61846;52.970;-3.168;2023-09-07T13:32:32;33;25;
73565;PMS5003;61846;52.970;-3.168;2023-09-07T13:34:57;29;25;
73565;PMS5003;61846;52.970;-3.168;2023-09-07T13:37:23;31;27;
73565;PMS5003;61846;52.970;-3.168;2023-09-07T13:39:48;35;27;
73565;PMS5003;61846;52.970;-3.168;2023-09-07T13:42:14;30;23;
73565;PMS5003;61846;52.970;-3.168;2023-09-07T13:44:39;25;25;
73565;PMS5003;61846;52.970;-3.168;2023-09-07T13:47:04;27;22;
73565;PMS5003;61846;52.970;-3.168;2023-09-07T13:49:29;31;22;
73565;PMS5003;61846;52.970;-3.168;2023-09-07T13:51:55;29;27;
73565;PMS5003;61846;52.970;-3.168;2023-09-07T13:54:21;25;25;
73565;PMS5003;61846;52.970;-3.168;2023-09-07T13:56:46;26;26;
73565;PMS5003;61846;52.970;-3.168;2023-09-07T13:59:11;26;23;
73565;PMS5003;61846;52.970;-3.168;2023-09-07T14:01:36;23;22;
73565;PMS5003;61846;52.970;-3.168;2023-09-07T14:04:02;27;21;
73565;PMS5003;61846;52.970;-3.168;2023-09-07T14:06:27;26;22;
73565;PMS5003;61846;52.970;-3.168;2023-09-07T14:08:53;22;20;
73565;PMS5003;61846;52.970;-3.168;2023-09-07T14:11:19;29;21;
73565;PMS5003;61846;52.970;-3.168;2023-09-07T14:13:44;26;22;
73565;PMS5003;61846;52.970;-3.168;2023-09-07T14:16:10;19;19;
73565;PMS5003;61846;52.970;-3.168;2023-09-07T14:18:35;24;24;
73565;PMS5003;61846;52.970;-3.168;2023-09-07T14:21:01;20;20;
73565;PMS5003;61846;52.970;-3.168;2023-09-07T14:23:26;17;16;
73565;PMS5003;61846;52.970;-3.168;2023-09-07T14:25:51;21;21;
73565;PMS5003;61846;52.970;-3.168;2023-09-07T14:28:17;23;20;
73565;PMS5003;61846;52.970;-3.168;2023-09-07T14:30:42;22;22;
73565;PMS5003;61846;52.970;-3.168;2023-09-07T14:33:07;25;19;
73565;PMS5003;61846;52.970;-3.168;2023-09-07T14:35:33;23;20;
73565;PMS5003;61846;52.970;-3.168;2023-09-07T14:37:58;20;19;
73565;PMS5003;61846;52.970;-3.168;2023-09-07T14:40:24;21;21;
73565;PMS5003;61846;52.970;-3.168;2023-09-07T14:42:49;26;17;
73565;PMS5003;61846;52.970;-3.168;2023-09-07T14:45:15;19;19;
73565;PMS5003;61846;52.970;-3.168;2023-09-07T14:47:40;19;17;
73565;PMS5003;61846;52.970;-3.168;2023-09-07T14:50:07;24;24;
73565;PMS5003;61846;52.970;-3.168;2023-09-07T14:52:31;20;17;
73565;PMS5003;61846;52.970;-3.168;2023-09-07T14:54:57;20;19;
73565;PMS5003;61846;52.970;-3.168;2023-09-07T14:57:23;23;20;
73565;PMS5003;61846;52.970;-3.168;2023-09-07T14:59:49;18;18;
73565;PMS5003;61846;52.970;-3.168;2023-09-07T15:02:14;27;20;
73565;PMS5003;61846;52.970;-3.168;2023-09-07T15:04:39;20;19;
73565;PMS5003;61846;52.970;-3.168;2023-09-07T15:07:05;20;18;
73565;PMS5003;61846;52.970;-3.168;2023-09-07T15:09:30;20;19;
73565;PMS5003;61846;52.970;-3.168;2023-09-07T15:11:55;24;24;
73565;PMS5003;61846;52.970;-3.168;2023-09-07T15:14:21;19;19;
73565;PMS5003;61846;52.970;-3.168;2023-09-07T15:16:47;18;16;
73565;PMS5003;61846;52.970;-3.168;2023-09-07T15:19:12;26;19;
73565;PMS5003;61846;52.970;-3.168;2023-09-07T15:21:37;31;23;
73565;PMS5003;61846;52.970;-3.168;2023-09-07T15:24:03;22;21;
73565;PMS5003;61846;52.970;-3.168;2023-09-07T15:26:28;21;20;
73565;PMS5003;61846;52.970;-3.168;2023-09-07T15:28:54;22;20;
73565;PMS5003;61846;52.970;-3.168;2023-09-07T15:31:19;19;17;
73565;PMS5003;61846;52.970;-3.168;2023-09-07T15:33:44;17;17;
73565;PMS5003;61846;52.970;-3.168;2023-09-07T15:36:10;20;18;
73565;PMS5003;61846;52.970;-3.168;2023-09-07T15:38:34;23;17;
73565;PMS5003;61846;52.970;-3.168;2023-09-07T15:41:00;18;18;
73565;PMS5003;61846;52.970;-3.168;2023-09-07T15:43:26;19;17;
73565;PMS5003;61846;52.970;-3.168;2023-09-07T15:45:52;21;21;
73565;PMS5003;61846;52.970;-3.168;2023-09-07T15:48:17;18;18;
73565;PMS5003;61846;52.970;-3.168;2023-09-07T15:50:42;21;18;
73565;PMS5003;61846;52.970;-3.168;2023-09-07T15:53:08;21;19;
73565;PMS5003;61846;52.970;-3.168;2023-09-07T15:55:33;18;18;